Terminal Aerodrome Forecast
Issued by NWS

Home | Current Version | Previous Version | Text Only | Print | Product List | Glossary On
Versions: 1 2 3 4 5 6 7 8 9 10 11 12 13 14 15 16 17 18 19
000
FTUS41 KRNK 290521
TAFLWB
TAF
KLWB 290521Z 2906/3006 00000KT P6SM VCSH BKN009 BKN015
     FM291500 11004KT P6SM OVC018
     FM291800 13005KT P6SM BKN040
     FM292100 09005KT 4SM SHRA VCTS BKN025 OVC040CB=

USA.gov is the U.S. government's official web portal to all federal, state and local government web resources and services.